Hlavní strana
METAR-TAF:

METAR-TAF

Letiště :

Letiště Moskva-Šeremeťjevo

Moskva-Šeremetěvo, Rusko

zeměpisná šířka: 55-58N, zeměpisná délka: 037-25E, výška: 190 m

Aktuální stav počasí

Zpráva byla vytvořena před 22 minutami, v 14:00 UTC
Západoseverozápadní vítr 8 kt
Teplota 14°C
Vlhkost vzduchu 72%
Tlak 1015 hPa
Viditelnost 10 km a více
Žádná oblačnost pod 1500 m, nevyskytují se cumulonimby.

METAR: UUEE 191400Z 30004MPS CAVOK 14/09 Q1015 R24L/CLRD62 R24C/CLRD62 NOSIG

Čas: 17:22 (14:22 UTC)

Předpověď počasí

Zpráva byla vytvořena před 3 hodinami a 28 minutami, v 10:54 UTC
Předpověď platná od 19 v 12 UTC do 20 v 12 UTC
Západoseverozápadní vítr 10 kt
Viditelnost: 9000 m
Polojasno ve výšce 3000 ft

TAF: UUEE 191054Z 1912/2012 30005MPS 9000 SCT030 TX16/1912Z TN02/2003Z

Stav a předpovědi počasí z více než 4 000 letišť (zprávy METAR a TAF).

Červené a žluté tečky na mapě představují dostupné meteorologické stanice.

Když kurzor umístíte na tečku, zobrazí se název stanice.

Pak kliknutím zobrazíte stav a předpověď počasí.

Chcete-li změnit mapu, kliknutím na zelené tlačítko se znaménkem +mapu přiblížíte, kliknutím na zelené tlačítko se znaménkem – mapu oddálíte a kliknutím na zelené šipky přejdete na sousední mapy.


METAR-TAF: